sensor_id;sensor_type;location;lat;lon;timestamp;P1;durP1;ratioP1;P2;durP2;ratioP2
19374;SDS011;9823;50.936;4.046;2023-04-09T00:02:16;104.57;;;50.93;;
19374;SDS011;9823;50.936;4.046;2023-04-09T00:04:45;106.53;;;50.07;;
19374;SDS011;9823;50.936;4.046;2023-04-09T00:07:13;107.13;;;51.53;;
19374;SDS011;9823;50.936;4.046;2023-04-09T00:09:41;112.53;;;53.53;;
19374;SDS011;9823;50.936;4.046;2023-04-09T00:12:07;108.23;;;51.60;;
19374;SDS011;9823;50.936;4.046;2023-04-09T00:14:34;107.10;;;53.23;;
19374;SDS011;9823;50.936;4.046;2023-04-09T00:17:02;103.20;;;49.93;;
19374;SDS011;9823;50.936;4.046;2023-04-09T00:19:28;110.43;;;53.23;;
19374;SDS011;9823;50.936;4.046;2023-04-09T00:21:57;115.53;;;51.67;;
19374;SDS011;9823;50.936;4.046;2023-04-09T00:24:35;104.13;;;50.97;;
19374;SDS011;9823;50.936;4.046;2023-04-09T00:27:01;107.87;;;50.67;;
19374;SDS011;9823;50.936;4.046;2023-04-09T00:29:29;110.67;;;50.93;;
19374;SDS011;9823;50.936;4.046;2023-04-09T00:31:55;109.93;;;49.47;;
19374;SDS011;9823;50.936;4.046;2023-04-09T00:34:23;105.37;;;51.20;;
19374;SDS011;9823;50.936;4.046;2023-04-09T00:36:49;106.40;;;51.03;;
19374;SDS011;9823;50.936;4.046;2023-04-09T00:39:17;107.63;;;49.77;;
19374;SDS011;9823;50.936;4.046;2023-04-09T00:41:43;101.60;;;47.97;;
19374;SDS011;9823;50.936;4.046;2023-04-09T00:44:14;107.27;;;51.77;;
19374;SDS011;9823;50.936;4.046;2023-04-09T00:46:40;102.77;;;48.33;;
19374;SDS011;9823;50.936;4.046;2023-04-09T00:49:06;102.90;;;49.27;;
19374;SDS011;9823;50.936;4.046;2023-04-09T00:51:37;105.33;;;49.93;;
19374;SDS011;9823;50.936;4.046;2023-04-09T00:54:03;110.33;;;53.30;;
19374;SDS011;9823;50.936;4.046;2023-04-09T00:56:29;112.57;;;50.30;;
19374;SDS011;9823;50.936;4.046;2023-04-09T00:58:58;105.77;;;48.37;;
19374;SDS011;9823;50.936;4.046;2023-04-09T01:01:24;103.73;;;49.27;;
19374;SDS011;9823;50.936;4.046;2023-04-09T01:03:52;103.13;;;49.70;;
19374;SDS011;9823;50.936;4.046;2023-04-09T01:06:26;104.23;;;50.17;;
19374;SDS011;9823;50.936;4.046;2023-04-09T01:09:02;100.40;;;47.30;;
19374;SDS011;9823;50.936;4.046;2023-04-09T01:14:03;98.53;;;49.53;;
19374;SDS011;9823;50.936;4.046;2023-04-09T01:16:33;95.80;;;48.37;;
19374;SDS011;9823;50.936;4.046;2023-04-09T01:19:49;97.57;;;48.43;;
19374;SDS011;9823;50.936;4.046;2023-04-09T01:21:47;91.17;;;44.20;;
19374;SDS011;9823;50.936;4.046;2023-04-09T01:27:00;84.63;;;42.63;;
19374;SDS011;9823;50.936;4.046;2023-04-09T01:29:29;84.33;;;42.83;;
19374;SDS011;9823;50.936;4.046;2023-04-09T01:31:56;88.57;;;45.77;;
19374;SDS011;9823;50.936;4.046;2023-04-09T01:34:23;88.23;;;43.87;;
19374;SDS011;9823;50.936;4.046;2023-04-09T01:36:51;88.53;;;43.47;;
19374;SDS011;9823;50.936;4.046;2023-04-09T01:39:20;81.80;;;42.33;;
19374;SDS011;9823;50.936;4.046;2023-04-09T01:41:46;78.03;;;41.00;;
19374;SDS011;9823;50.936;4.046;2023-04-09T01:44:13;77.90;;;41.13;;
19374;SDS011;9823;50.936;4.046;2023-04-09T01:46:39;77.17;;;41.17;;
19374;SDS011;9823;50.936;4.046;2023-04-09T01:49:08;82.50;;;41.80;;
19374;SDS011;9823;50.936;4.046;2023-04-09T01:51:34;81.20;;;41.20;;
19374;SDS011;9823;50.936;4.046;2023-04-09T01:54:01;76.77;;;38.70;;
19374;SDS011;9823;50.936;4.046;2023-04-09T01:56:27;72.70;;;38.20;;
19374;SDS011;9823;50.936;4.046;2023-04-09T01:59:04;79.53;;;37.70;;
19374;SDS011;9823;50.936;4.046;2023-04-09T02:09:28;73.23;;;36.93;;
19374;SDS011;9823;50.936;4.046;2023-04-09T02:11:58;69.70;;;37.13;;
19374;SDS011;9823;50.936;4.046;2023-04-09T02:14:26;70.27;;;37.33;;
19374;SDS011;9823;50.936;4.046;2023-04-09T02:16:55;69.90;;;37.07;;
19374;SDS011;9823;50.936;4.046;2023-04-09T02:19:21;73.07;;;36.83;;
19374;SDS011;9823;50.936;4.046;2023-04-09T02:21:47;71.73;;;37.27;;
19374;SDS011;9823;50.936;4.046;2023-04-09T02:24:13;73.07;;;37.10;;
19374;SDS011;9823;50.936;4.046;2023-04-09T02:26:39;71.47;;;37.40;;
19374;SDS011;9823;50.936;4.046;2023-04-09T02:29:05;74.07;;;38.47;;
19374;SDS011;9823;50.936;4.046;2023-04-09T02:31:31;72.80;;;38.03;;
19374;SDS011;9823;50.936;4.046;2023-04-09T02:34:00;73.93;;;37.20;;
19374;SDS011;9823;50.936;4.046;2023-04-09T02:36:26;74.37;;;36.93;;
19374;SDS011;9823;50.936;4.046;2023-04-09T02:38:52;68.43;;;36.10;;
19374;SDS011;9823;50.936;4.046;2023-04-09T02:41:18;65.33;;;36.03;;
19374;SDS011;9823;50.936;4.046;2023-04-09T02:43:47;61.73;;;33.70;;
19374;SDS011;9823;50.936;4.046;2023-04-09T02:46:13;66.87;;;33.73;;
19374;SDS011;9823;50.936;4.046;2023-04-09T02:48:43;68.60;;;36.40;;
19374;SDS011;9823;50.936;4.046;2023-04-09T02:51:09;65.03;;;34.90;;
19374;SDS011;9823;50.936;4.046;2023-04-09T02:53:35;66.43;;;35.60;;
19374;SDS011;9823;50.936;4.046;2023-04-09T02:56:03;67.27;;;34.67;;
19374;SDS011;9823;50.936;4.046;2023-04-09T02:58:31;70.23;;;34.93;;
19374;SDS011;9823;50.936;4.046;2023-04-09T03:00:57;64.67;;;34.10;;
19374;SDS011;9823;50.936;4.046;2023-04-09T03:03:26;65.73;;;34.93;;
19374;SDS011;9823;50.936;4.046;2023-04-09T03:05:52;65.60;;;34.57;;
19374;SDS011;9823;50.936;4.046;2023-04-09T03:08:18;67.37;;;34.00;;
19374;SDS011;9823;50.936;4.046;2023-04-09T03:10:44;66.80;;;34.67;;
19374;SDS011;9823;50.936;4.046;2023-04-09T03:13:12;65.73;;;34.00;;
19374;SDS011;9823;50.936;4.046;2023-04-09T03:15:38;68.27;;;33.83;;
19374;SDS011;9823;50.936;4.046;2023-04-09T03:18:05;67.20;;;35.13;;
19374;SDS011;9823;50.936;4.046;2023-04-09T03:20:31;66.43;;;34.97;;
19374;SDS011;9823;50.936;4.046;2023-04-09T03:22:57;60.93;;;32.17;;
19374;SDS011;9823;50.936;4.046;2023-04-09T03:25:25;60.20;;;32.10;;
19374;SDS011;9823;50.936;4.046;2023-04-09T03:27:51;63.93;;;33.07;;
19374;SDS011;9823;50.936;4.046;2023-04-09T03:30:18;63.40;;;33.03;;
19374;SDS011;9823;50.936;4.046;2023-04-09T03:32:44;63.87;;;33.70;;
19374;SDS011;9823;50.936;4.046;2023-04-09T03:35:10;66.77;;;32.93;;
19374;SDS011;9823;50.936;4.046;2023-04-09T03:37:36;63.57;;;32.77;;
19374;SDS011;9823;50.936;4.046;2023-04-09T03:40:04;66.00;;;34.13;;
19374;SDS011;9823;50.936;4.046;2023-04-09T03:42:30;61.17;;;33.53;;
19374;SDS011;9823;50.936;4.046;2023-04-09T03:44:58;67.60;;;33.70;;
19374;SDS011;9823;50.936;4.046;2023-04-09T03:47:24;64.53;;;32.43;;
19374;SDS011;9823;50.936;4.046;2023-04-09T03:49:50;63.87;;;32.63;;
19374;SDS011;9823;50.936;4.046;2023-04-09T03:52:16;63.50;;;33.13;;
19374;SDS011;9823;50.936;4.046;2023-04-09T03:54:42;63.57;;;33.23;;
19374;SDS011;9823;50.936;4.046;2023-04-09T03:57:08;70.23;;;33.53;;
19374;SDS011;9823;50.936;4.046;2023-04-09T03:59:34;70.70;;;34.23;;
19374;SDS011;9823;50.936;4.046;2023-04-09T04:02:03;70.53;;;34.57;;
19374;SDS011;9823;50.936;4.046;2023-04-09T04:04:29;71.83;;;33.27;;
19374;SDS011;9823;50.936;4.046;2023-04-09T04:06:55;69.07;;;34.20;;
19374;SDS011;9823;50.936;4.046;2023-04-09T04:09:24;65.47;;;33.63;;
19374;SDS011;9823;50.936;4.046;2023-04-09T04:11:50;77.23;;;35.70;;
19374;SDS011;9823;50.936;4.046;2023-04-09T04:14:16;67.87;;;33.87;;
19374;SDS011;9823;50.936;4.046;2023-04-09T04:16:42;67.33;;;34.37;;
19374;SDS011;9823;50.936;4.046;2023-04-09T04:19:11;75.40;;;34.03;;
19374;SDS011;9823;50.936;4.046;2023-04-09T04:21:37;72.67;;;35.33;;
19374;SDS011;9823;50.936;4.046;2023-04-09T04:24:05;72.70;;;35.03;;
19374;SDS011;9823;50.936;4.046;2023-04-09T04:26:31;70.87;;;35.27;;
19374;SDS011;9823;50.936;4.046;2023-04-09T04:28:57;72.10;;;36.23;;
19374;SDS011;9823;50.936;4.046;2023-04-09T04:31:23;88.27;;;38.80;;
19374;SDS011;9823;50.936;4.046;2023-04-09T04:33:49;83.43;;;37.77;;
19374;SDS011;9823;50.936;4.046;2023-04-09T04:36:18;70.17;;;35.77;;
19374;SDS011;9823;50.936;4.046;2023-04-09T04:38:44;72.30;;;35.67;;
19374;SDS011;9823;50.936;4.046;2023-04-09T04:41:12;69.63;;;35.97;;
19374;SDS011;9823;50.936;4.046;2023-04-09T04:43:38;77.57;;;36.37;;
19374;SDS011;9823;50.936;4.046;2023-04-09T04:46:07;80.67;;;37.83;;
19374;SDS011;9823;50.936;4.046;2023-04-09T04:48:33;79.30;;;36.13;;
19374;SDS011;9823;50.936;4.046;2023-04-09T04:51:00;82.43;;;36.37;;
19374;SDS011;9823;50.936;4.046;2023-04-09T04:53:27;102.03;;;41.30;;
19374;SDS011;9823;50.936;4.046;2023-04-09T04:55:53;73.33;;;36.73;;
19374;SDS011;9823;50.936;4.046;2023-04-09T04:58:21;61.63;;;31.67;;
19374;SDS011;9823;50.936;4.046;2023-04-09T05:00:50;65.73;;;35.03;;
19374;SDS011;9823;50.936;4.046;2023-04-09T05:03:16;69.63;;;35.43;;
19374;SDS011;9823;50.936;4.046;2023-04-09T05:05:44;63.97;;;33.67;;
19374;SDS011;9823;50.936;4.046;2023-04-09T05:08:10;69.70;;;34.57;;
19374;SDS011;9823;50.936;4.046;2023-04-09T05:10:39;65.83;;;31.97;;
19374;SDS011;9823;50.936;4.046;2023-04-09T05:13:05;72.17;;;35.37;;
19374;SDS011;9823;50.936;4.046;2023-04-09T05:15:31;71.50;;;34.40;;
19374;SDS011;9823;50.936;4.046;2023-04-09T05:18:00;67.97;;;34.47;;
19374;SDS011;9823;50.936;4.046;2023-04-09T05:20:26;68.87;;;33.13;;
19374;SDS011;9823;50.936;4.046;2023-04-09T05:22:52;62.83;;;32.33;;
19374;SDS011;9823;50.936;4.046;2023-04-09T05:25:20;62.97;;;33.10;;
19374;SDS011;9823;50.936;4.046;2023-04-09T05:27:49;64.47;;;32.17;;
19374;SDS011;9823;50.936;4.046;2023-04-09T05:30:15;58.80;;;31.20;;
19374;SDS011;9823;50.936;4.046;2023-04-09T05:32:41;71.77;;;32.83;;
19374;SDS011;9823;50.936;4.046;2023-04-09T05:35:13;61.23;;;32.00;;
19374;SDS011;9823;50.936;4.046;2023-04-09T05:37:39;64.90;;;33.20;;
19374;SDS011;9823;50.936;4.046;2023-04-09T05:40:10;65.47;;;33.30;;
19374;SDS011;9823;50.936;4.046;2023-04-09T05:42:37;58.97;;;31.63;;
19374;SDS011;9823;50.936;4.046;2023-04-09T05:45:03;58.60;;;31.83;;
19374;SDS011;9823;50.936;4.046;2023-04-09T05:47:29;66.13;;;34.03;;
19374;SDS011;9823;50.936;4.046;2023-04-09T05:50:01;58.47;;;32.47;;
19374;SDS011;9823;50.936;4.046;2023-04-09T05:52:28;59.67;;;33.03;;
19374;SDS011;9823;50.936;4.046;2023-04-09T05:54:54;65.57;;;36.90;;
19374;SDS011;9823;50.936;4.046;2023-04-09T05:57:20;63.63;;;35.90;;
19374;SDS011;9823;50.936;4.046;2023-04-09T05:59:46;69.13;;;38.43;;
19374;SDS011;9823;50.936;4.046;2023-04-09T06:02:14;66.73;;;35.50;;
19374;SDS011;9823;50.936;4.046;2023-04-09T06:04:40;68.63;;;38.17;;
19374;SDS011;9823;50.936;4.046;2023-04-09T06:07:06;67.53;;;36.60;;
19374;SDS011;9823;50.936;4.046;2023-04-09T06:09:35;65.07;;;36.90;;
19374;SDS011;9823;50.936;4.046;2023-04-09T06:12:04;78.63;;;40.20;;
19374;SDS011;9823;50.936;4.046;2023-04-09T06:14:30;88.13;;;41.70;;
19374;SDS011;9823;50.936;4.046;2023-04-09T06:16:57;65.13;;;35.70;;
19374;SDS011;9823;50.936;4.046;2023-04-09T06:19:23;59.17;;;34.80;;
19374;SDS011;9823;50.936;4.046;2023-04-09T06:21:50;72.03;;;36.83;;
19374;SDS011;9823;50.936;4.046;2023-04-09T06:24:16;104.07;;;44.20;;
19374;SDS011;9823;50.936;4.046;2023-04-09T06:26:42;113.57;;;46.63;;
19374;SDS011;9823;50.936;4.046;2023-04-09T06:29:08;71.17;;;35.37;;
19374;SDS011;9823;50.936;4.046;2023-04-09T06:31:34;66.63;;;35.63;;
19374;SDS011;9823;50.936;4.046;2023-04-09T06:34:04;71.97;;;36.27;;
19374;SDS011;9823;50.936;4.046;2023-04-09T06:36:33;113.67;;;46.20;;
19374;SDS011;9823;50.936;4.046;2023-04-09T06:39:01;67.97;;;35.93;;
19374;SDS011;9823;50.936;4.046;2023-04-09T06:41:27;66.17;;;37.17;;
19374;SDS011;9823;50.936;4.046;2023-04-09T06:43:53;115.87;;;47.33;;
19374;SDS011;9823;50.936;4.046;2023-04-09T06:46:22;85.43;;;40.87;;
19374;SDS011;9823;50.936;4.046;2023-04-09T06:48:50;66.27;;;36.57;;
19374;SDS011;9823;50.936;4.046;2023-04-09T06:51:16;77.87;;;39.33;;
19374;SDS011;9823;50.936;4.046;2023-04-09T06:53:44;63.80;;;36.77;;
19374;SDS011;9823;50.936;4.046;2023-04-09T06:56:12;70.10;;;36.63;;
19374;SDS011;9823;50.936;4.046;2023-04-09T06:58:40;66.27;;;36.63;;
19374;SDS011;9823;50.936;4.046;2023-04-09T07:01:06;61.90;;;35.33;;
19374;SDS011;9823;50.936;4.046;2023-04-09T07:03:32;66.63;;;37.00;;
19374;SDS011;9823;50.936;4.046;2023-04-09T07:05:58;67.33;;;37.23;;
19374;SDS011;9823;50.936;4.046;2023-04-09T07:08:27;71.43;;;37.30;;
19374;SDS011;9823;50.936;4.046;2023-04-09T07:10:53;71.27;;;38.07;;
19374;SDS011;9823;50.936;4.046;2023-04-09T07:13:19;76.63;;;38.90;;
19374;SDS011;9823;50.936;4.046;2023-04-09T07:15:47;69.90;;;37.90;;
19374;SDS011;9823;50.936;4.046;2023-04-09T07:18:15;73.60;;;37.87;;
19374;SDS011;9823;50.936;4.046;2023-04-09T07:20:41;74.00;;;38.87;;
19374;SDS011;9823;50.936;4.046;2023-04-09T07:23:07;72.03;;;38.73;;
19374;SDS011;9823;50.936;4.046;2023-04-09T07:25:33;75.50;;;39.43;;
19374;SDS011;9823;50.936;4.046;2023-04-09T07:28:00;74.37;;;38.60;;
19374;SDS011;9823;50.936;4.046;2023-04-09T07:30:28;72.43;;;40.00;;
19374;SDS011;9823;50.936;4.046;2023-04-09T07:32:54;76.87;;;41.33;;
19374;SDS011;9823;50.936;4.046;2023-04-09T07:35:20;77.43;;;40.17;;
19374;SDS011;9823;50.936;4.046;2023-04-09T07:37:47;72.60;;;38.83;;
19374;SDS011;9823;50.936;4.046;2023-04-09T07:40:17;69.40;;;37.40;;
19374;SDS011;9823;50.936;4.046;2023-04-09T07:42:43;72.40;;;37.90;;
19374;SDS011;9823;50.936;4.046;2023-04-09T07:45:09;65.53;;;36.90;;
19374;SDS011;9823;50.936;4.046;2023-04-09T07:47:36;65.77;;;38.20;;
19374;SDS011;9823;50.936;4.046;2023-04-09T07:50:04;62.07;;;37.27;;
19374;SDS011;9823;50.936;4.046;2023-04-09T07:52:31;61.43;;;35.87;;
19374;SDS011;9823;50.936;4.046;2023-04-09T07:54:57;62.60;;;38.57;;
19374;SDS011;9823;50.936;4.046;2023-04-09T07:57:23;55.17;;;35.00;;
19374;SDS011;9823;50.936;4.046;2023-04-09T07:59:49;57.17;;;36.67;;
19374;SDS011;9823;50.936;4.046;2023-04-09T08:02:15;56.03;;;36.20;;
19374;SDS011;9823;50.936;4.046;2023-04-09T08:04:45;57.17;;;37.07;;
19374;SDS011;9823;50.936;4.046;2023-04-09T08:07:11;54.87;;;36.43;;
19374;SDS011;9823;50.936;4.046;2023-04-09T08:09:37;54.77;;;36.50;;
19374;SDS011;9823;50.936;4.046;2023-04-09T08:12:05;52.80;;;36.13;;
19374;SDS011;9823;50.936;4.046;2023-04-09T08:14:31;52.80;;;36.13;;
19374;SDS011;9823;50.936;4.046;2023-04-09T08:16:58;55.47;;;35.90;;
19374;SDS011;9823;50.936;4.046;2023-04-09T08:19:25;53.07;;;36.43;;
19374;SDS011;9823;50.936;4.046;2023-04-09T08:21:53;51.80;;;35.70;;
19374;SDS011;9823;50.936;4.046;2023-04-09T08:24:20;48.80;;;34.00;;
19374;SDS011;9823;50.936;4.046;2023-04-09T08:26:46;49.23;;;36.00;;
19374;SDS011;9823;50.936;4.046;2023-04-09T08:29:15;52.43;;;37.30;;
19374;SDS011;9823;50.936;4.046;2023-04-09T08:31:48;48.33;;;34.63;;
19374;SDS011;9823;50.936;4.046;2023-04-09T08:34:15;54.13;;;35.50;;
19374;SDS011;9823;50.936;4.046;2023-04-09T08:36:47;51.40;;;35.70;;
19374;SDS011;9823;50.936;4.046;2023-04-09T08:39:14;54.67;;;36.13;;
19374;SDS011;9823;50.936;4.046;2023-04-09T08:41:44;49.87;;;34.17;;
19374;SDS011;9823;50.936;4.046;2023-04-09T08:44:10;52.63;;;34.97;;
19374;SDS011;9823;50.936;4.046;2023-04-09T08:46:36;50.57;;;34.53;;
19374;SDS011;9823;50.936;4.046;2023-04-09T08:49:17;49.13;;;34.67;;
19374;SDS011;9823;50.936;4.046;2023-04-09T08:51:47;46.20;;;32.47;;
19374;SDS011;9823;50.936;4.046;2023-04-09T08:54:17;45.90;;;33.27;;
19374;SDS011;9823;50.936;4.046;2023-04-09T08:56:45;48.40;;;33.27;;
19374;SDS011;9823;50.936;4.046;2023-04-09T08:59:15;43.80;;;31.30;;
19374;SDS011;9823;50.936;4.046;2023-04-09T09:01:45;42.33;;;31.37;;
19374;SDS011;9823;50.936;4.046;2023-04-09T09:04:13;45.57;;;31.47;;
19374;SDS011;9823;50.936;4.046;2023-04-09T09:06:39;45.37;;;31.97;;
19374;SDS011;9823;50.936;4.046;2023-04-09T09:09:12;44.97;;;31.63;;
19374;SDS011;9823;50.936;4.046;2023-04-09T09:11:40;45.37;;;31.73;;
19374;SDS011;9823;50.936;4.046;2023-04-09T09:16:40;43.30;;;30.73;;
19374;SDS011;9823;50.936;4.046;2023-04-09T09:24:25;39.30;;;28.73;;
19374;SDS011;9823;50.936;4.046;2023-04-09T09:26:52;41.70;;;29.10;;
19374;SDS011;9823;50.936;4.046;2023-04-09T09:29:21;40.60;;;28.77;;
19374;SDS011;9823;50.936;4.046;2023-04-09T09:31:56;38.30;;;27.83;;
19374;SDS011;9823;50.936;4.046;2023-04-09T09:34:23;42.90;;;29.53;;
19374;SDS011;9823;50.936;4.046;2023-04-09T09:36:53;41.57;;;29.63;;
19374;SDS011;9823;50.936;4.046;2023-04-09T09:39:22;45.53;;;31.03;;
19374;SDS011;9823;50.936;4.046;2023-04-09T09:41:48;46.00;;;30.87;;
19374;SDS011;9823;50.936;4.046;2023-04-09T09:44:31;46.57;;;29.80;;
19374;SDS011;9823;50.936;4.046;2023-04-09T09:47:00;44.33;;;29.13;;
19374;SDS011;9823;50.936;4.046;2023-04-09T09:49:30;47.17;;;31.30;;
19374;SDS011;9823;50.936;4.046;2023-04-09T09:51:56;46.13;;;32.37;;
19374;SDS011;9823;50.936;4.046;2023-04-09T09:54:24;44.13;;;30.63;;
19374;SDS011;9823;50.936;4.046;2023-04-09T09:56:53;41.47;;;30.17;;
19374;SDS011;9823;50.936;4.046;2023-04-09T09:59:20;38.63;;;28.80;;
19374;SDS011;9823;50.936;4.046;2023-04-09T10:01:47;37.03;;;27.27;;
19374;SDS011;9823;50.936;4.046;2023-04-09T10:04:17;39.33;;;27.60;;
19374;SDS011;9823;50.936;4.046;2023-04-09T10:06:46;36.30;;;24.80;;
19374;SDS011;9823;50.936;4.046;2023-04-09T10:09:12;31.87;;;23.57;;
19374;SDS011;9823;50.936;4.046;2023-04-09T10:11:39;33.30;;;23.50;;
19374;SDS011;9823;50.936;4.046;2023-04-09T10:14:08;41.60;;;24.30;;
19374;SDS011;9823;50.936;4.046;2023-04-09T10:16:34;35.87;;;22.77;;
19374;SDS011;9823;50.936;4.046;2023-04-09T10:19:00;34.33;;;22.23;;
19374;SDS011;9823;50.936;4.046;2023-04-09T10:21:32;30.53;;;19.00;;
19374;SDS011;9823;50.936;4.046;2023-04-09T10:23:59;33.23;;;20.37;;
19374;SDS011;9823;50.936;4.046;2023-04-09T10:26:31;32.53;;;21.00;;
19374;SDS011;9823;50.936;4.046;2023-04-09T10:29:04;33.73;;;21.50;;
19374;SDS011;9823;50.936;4.046;2023-04-09T10:31:44;37.63;;;22.07;;
19374;SDS011;9823;50.936;4.046;2023-04-09T10:34:13;34.03;;;20.83;;
19374;SDS011;9823;50.936;4.046;2023-04-09T10:36:43;38.20;;;22.47;;
19374;SDS011;9823;50.936;4.046;2023-04-09T10:39:15;36.73;;;22.37;;
19374;SDS011;9823;50.936;4.046;2023-04-09T10:41:41;34.43;;;21.57;;
19374;SDS011;9823;50.936;4.046;2023-04-09T10:44:18;38.03;;;22.37;;
19374;SDS011;9823;50.936;4.046;2023-04-09T10:46:44;36.00;;;22.50;;
19374;SDS011;9823;50.936;4.046;2023-04-09T10:49:26;34.20;;;20.77;;
19374;SDS011;9823;50.936;4.046;2023-04-09T10:51:52;38.60;;;20.70;;
19374;SDS011;9823;50.936;4.046;2023-04-09T10:59:38;38.67;;;22.00;;
19374;SDS011;9823;50.936;4.046;2023-04-09T11:02:09;34.80;;;21.80;;
19374;SDS011;9823;50.936;4.046;2023-04-09T11:07:28;35.40;;;22.73;;
19374;SDS011;9823;50.936;4.046;2023-04-09T11:09:55;41.63;;;23.93;;
19374;SDS011;9823;50.936;4.046;2023-04-09T11:12:21;36.27;;;23.40;;
19374;SDS011;9823;50.936;4.046;2023-04-09T11:14:47;41.43;;;23.87;;
19374;SDS011;9823;50.936;4.046;2023-04-09T11:17:13;35.33;;;21.27;;
19374;SDS011;9823;50.936;4.046;2023-04-09T11:19:40;35.33;;;20.53;;
19374;SDS011;9823;50.936;4.046;2023-04-09T11:22:06;33.13;;;22.33;;
19374;SDS011;9823;50.936;4.046;2023-04-09T11:24:48;32.23;;;20.43;;
19374;SDS011;9823;50.936;4.046;2023-04-09T11:27:15;32.87;;;19.97;;
19374;SDS011;9823;50.936;4.046;2023-04-09T11:29:44;30.67;;;19.23;;
19374;SDS011;9823;50.936;4.046;2023-04-09T11:32:11;32.33;;;20.70;;
19374;SDS011;9823;50.936;4.046;2023-04-09T11:34:37;34.53;;;21.23;;
19374;SDS011;9823;50.936;4.046;2023-04-09T11:37:05;34.87;;;22.00;;
19374;SDS011;9823;50.936;4.046;2023-04-09T11:39:36;34.83;;;22.00;;
19374;SDS011;9823;50.936;4.046;2023-04-09T11:42:04;31.47;;;20.50;;
19374;SDS011;9823;50.936;4.046;2023-04-09T11:44:30;31.80;;;20.40;;
19374;SDS011;9823;50.936;4.046;2023-04-09T11:46:59;29.07;;;18.43;;
19374;SDS011;9823;50.936;4.046;2023-04-09T11:49:27;22.97;;;14.83;;
19374;SDS011;9823;50.936;4.046;2023-04-09T11:51:53;19.83;;;12.43;;
19374;SDS011;9823;50.936;4.046;2023-04-09T11:54:22;26.13;;;16.53;;
19374;SDS011;9823;50.936;4.046;2023-04-09T11:56:48;27.50;;;18.07;;
19374;SDS011;9823;50.936;4.046;2023-04-09T11:59:20;34.20;;;20.43;;
19374;SDS011;9823;50.936;4.046;2023-04-09T12:01:49;48.43;;;28.50;;
19374;SDS011;9823;50.936;4.046;2023-04-09T12:04:19;34.93;;;20.73;;
19374;SDS011;9823;50.936;4.046;2023-04-09T12:06:45;27.33;;;17.77;;
19374;SDS011;9823;50.936;4.046;2023-04-09T12:09:11;24.93;;;16.70;;
19374;SDS011;9823;50.936;4.046;2023-04-09T12:11:38;26.17;;;16.67;;
19374;SDS011;9823;50.936;4.046;2023-04-09T12:14:06;28.67;;;17.10;;
19374;SDS011;9823;50.936;4.046;2023-04-09T12:16:34;25.83;;;16.87;;
19374;SDS011;9823;50.936;4.046;2023-04-09T12:19:07;24.90;;;16.93;;
19374;SDS011;9823;50.936;4.046;2023-04-09T12:24:14;27.03;;;17.97;;
19374;SDS011;9823;50.936;4.046;2023-04-09T12:26:41;28.77;;;18.50;;
19374;SDS011;9823;50.936;4.046;2023-04-09T12:29:09;28.00;;;17.43;;
19374;SDS011;9823;50.936;4.046;2023-04-09T12:31:35;30.83;;;18.47;;
19374;SDS011;9823;50.936;4.046;2023-04-09T12:34:01;25.67;;;16.93;;
19374;SDS011;9823;50.936;4.046;2023-04-09T12:36:30;25.97;;;16.57;;
19374;SDS011;9823;50.936;4.046;2023-04-09T12:38:58;24.47;;;16.27;;
19374;SDS011;9823;50.936;4.046;2023-04-09T12:41:24;26.23;;;17.10;;
19374;SDS011;9823;50.936;4.046;2023-04-09T12:43:55;24.63;;;17.30;;
19374;SDS011;9823;50.936;4.046;2023-04-09T12:46:21;27.13;;;17.33;;
19374;SDS011;9823;50.936;4.046;2023-04-09T12:48:47;24.17;;;17.27;;
19374;SDS011;9823;50.936;4.046;2023-04-09T12:51:16;23.87;;;15.57;;
19374;SDS011;9823;50.936;4.046;2023-04-09T12:53:42;27.07;;;15.20;;
19374;SDS011;9823;50.936;4.046;2023-04-09T12:56:08;20.27;;;13.63;;
19374;SDS011;9823;50.936;4.046;2023-04-09T12:58:34;20.23;;;14.63;;
19374;SDS011;9823;50.936;4.046;2023-04-09T13:01:01;19.97;;;13.73;;
19374;SDS011;9823;50.936;4.046;2023-04-09T13:03:28;21.23;;;14.40;;
19374;SDS011;9823;50.936;4.046;2023-04-09T13:05:54;21.43;;;14.83;;
19374;SDS011;9823;50.936;4.046;2023-04-09T13:08:23;20.63;;;14.27;;
19374;SDS011;9823;50.936;4.046;2023-04-09T13:10:49;20.27;;;14.17;;
19374;SDS011;9823;50.936;4.046;2023-04-09T13:13:15;20.83;;;15.57;;
19374;SDS011;9823;50.936;4.046;2023-04-09T13:15:41;25.90;;;16.13;;
19374;SDS011;9823;50.936;4.046;2023-04-09T13:18:08;21.93;;;14.63;;
19374;SDS011;9823;50.936;4.046;2023-04-09T13:20:37;20.60;;;14.60;;
19374;SDS011;9823;50.936;4.046;2023-04-09T13:23:03;21.10;;;15.00;;
19374;SDS011;9823;50.936;4.046;2023-04-09T13:25:29;22.03;;;14.40;;
19374;SDS011;9823;50.936;4.046;2023-04-09T13:27:55;22.00;;;15.80;;
19374;SDS011;9823;50.936;4.046;2023-04-09T13:30:23;21.50;;;15.53;;
19374;SDS011;9823;50.936;4.046;2023-04-09T13:32:51;21.73;;;14.57;;
19374;SDS011;9823;50.936;4.046;2023-04-09T13:35:20;21.40;;;13.90;;
19374;SDS011;9823;50.936;4.046;2023-04-09T13:37:46;19.70;;;13.40;;
19374;SDS011;9823;50.936;4.046;2023-04-09T13:40:12;18.67;;;13.43;;
19374;SDS011;9823;50.936;4.046;2023-04-09T13:42:38;17.00;;;11.93;;
19374;SDS011;9823;50.936;4.046;2023-04-09T13:45:04;15.47;;;11.83;;
19374;SDS011;9823;50.936;4.046;2023-04-09T13:47:30;18.87;;;13.33;;
19374;SDS011;9823;50.936;4.046;2023-04-09T13:49:56;23.57;;;13.73;;
19374;SDS011;9823;50.936;4.046;2023-04-09T13:52:23;20.77;;;14.13;;
19374;SDS011;9823;50.936;4.046;2023-04-09T13:54:50;20.33;;;14.53;;
19374;SDS011;9823;50.936;4.046;2023-04-09T13:57:17;20.40;;;14.10;;
19374;SDS011;9823;50.936;4.046;2023-04-09T13:59:43;20.60;;;12.57;;
19374;SDS011;9823;50.936;4.046;2023-04-09T14:02:09;22.37;;;14.50;;
19374;SDS011;9823;50.936;4.046;2023-04-09T14:04:35;23.00;;;13.63;;
19374;SDS011;9823;50.936;4.046;2023-04-09T14:07:01;22.20;;;13.97;;
19374;SDS011;9823;50.936;4.046;2023-04-09T14:09:30;21.40;;;14.20;;
19374;SDS011;9823;50.936;4.046;2023-04-09T14:11:56;20.63;;;13.90;;
19374;SDS011;9823;50.936;4.046;2023-04-09T14:14:22;19.87;;;13.73;;
19374;SDS011;9823;50.936;4.046;2023-04-09T14:16:48;19.73;;;13.50;;
19374;SDS011;9823;50.936;4.046;2023-04-09T14:19:16;23.27;;;13.93;;
19374;SDS011;9823;50.936;4.046;2023-04-09T14:21:42;20.30;;;13.07;;
19374;SDS011;9823;50.936;4.046;2023-04-09T14:24:08;21.17;;;13.53;;
19374;SDS011;9823;50.936;4.046;2023-04-09T14:26:34;21.27;;;13.40;;
19374;SDS011;9823;50.936;4.046;2023-04-09T14:29:03;21.63;;;13.40;;
19374;SDS011;9823;50.936;4.046;2023-04-09T14:31:29;18.60;;;11.73;;
19374;SDS011;9823;50.936;4.046;2023-04-09T14:33:57;19.83;;;12.10;;
19374;SDS011;9823;50.936;4.046;2023-04-09T14:36:26;18.13;;;12.03;;
19374;SDS011;9823;50.936;4.046;2023-04-09T14:38:54;19.10;;;12.53;;
19374;SDS011;9823;50.936;4.046;2023-04-09T14:41:20;18.03;;;12.10;;
19374;SDS011;9823;50.936;4.046;2023-04-09T14:43:46;20.83;;;12.40;;
19374;SDS011;9823;50.936;4.046;2023-04-09T14:46:12;16.07;;;11.27;;
19374;SDS011;9823;50.936;4.046;2023-04-09T14:48:38;19.83;;;12.07;;
19374;SDS011;9823;50.936;4.046;2023-04-09T14:51:04;18.17;;;12.33;;
19374;SDS011;9823;50.936;4.046;2023-04-09T14:53:30;25.00;;;13.53;;
19374;SDS011;9823;50.936;4.046;2023-04-09T14:55:57;20.90;;;12.90;;
19374;SDS011;9823;50.936;4.046;2023-04-09T14:58:23;18.03;;;11.70;;
19374;SDS011;9823;50.936;4.046;2023-04-09T15:00:49;15.87;;;10.83;;
19374;SDS011;9823;50.936;4.046;2023-04-09T15:03:14;15.50;;;9.43;;
19374;SDS011;9823;50.936;4.046;2023-04-09T15:05:41;15.10;;;10.07;;
19374;SDS011;9823;50.936;4.046;2023-04-09T15:08:10;12.47;;;8.17;;